Airfield :







YOU CAN JOIN US ON...

 
LOGIN :

Register | Disclaimer

   EN    FR    IT 

 









Legend :    VFR   Marginal VFR   IFR   Intensive IFR   Very Intensive IFR
Visi :
Ceiling :
>= 8 km
>= 3000ft
5 to 8 km
1000 to 3000 ft
1500m to 5 km
500 to 1000 ft
800 to 1500m
200 to 500 ft
< 800m
< 200 ft
Symbols :   Thunderstorms  Fog  Heavy snow  Heavy precipitations  Wind > 20 kt






- Airport Elevation : 129 ft
- IATA code : YVP


CYVP - Kuujjuak

CURRENT METAR :
  • 221300Z 01004KT 12SM SCT011 BKN016 OVC021 00/00 A3008 RMK SF4SC2SC2 INTMT -SN SLP190

EXPIRED METARs :
  • 221228Z 36006KT 5SM BR SCT008 BKN016 OVC021 00/00 A3008 RMK SF3SC2SC3 INTMT -SN SLP189
  • 221200Z 01007KT 2SM -SN BR FEW005 BKN016 BKN026 00/00 A3007 RMK SF2SC3SC2 SLP188
  • 221142Z 36006KT 2SM BR FEW005 SCT011 BKN016 BKN023 00/00 A3007 RMK SF2SC1SC2SC2 SLP187
  • 221122Z 35004KT 4SM -SN FEW005 BKN011 OVC016 00/00 A3007 RMK SF2SC3SC3 SLP187
  • 221100Z 33004KT 2 1/2SM -SN SCT005 OVC011 M00/M00 A3007 RMK SF4SC4 SLP186
  • 221053Z 32004KT 2SM -SN SCT005 OVC011 M00/M00 A3007 RMK SF3SC5 SLP187

TAF TAF CYVP
Valid from the 22 at 12:00 until the 23 at 00:00 UTC


221142Z 2212/2224 33005KT P6SM SCT005 BKN025
TEMPO 2212/2214 2SM -SN BR BKN005 OVC015
FM221400 03010KT 4SM -SHSN BKN020
TEMPO 2214/2224 P6SM NSW BKN025 RMK NXT FCST BY 221800Z
CZUL FIR / North America



MET'MAP, your aeronautical weather chart ! - Copyright ORBIFLY December 2007 - Disclaimer

ORBIFLY MET'MAP TEAM :

Programming & Development : Alexandra Zaïnal
Concept & original design : Baudouin d'Aumeries
Assistance for programming : Marc-Olivier Méhu
Technical & hardware support : Manuel Goepfert

Contact : metmap@orbifly.com




SOURCES & CREDITS :

   NOAA